createdAt,value
2019-02-16T00:01:42.685Z,1.19
2019-02-16T00:04:10.350Z,1.32
2019-02-16T00:06:38.006Z,1.35
2019-02-16T00:09:05.671Z,1.12
2019-02-16T00:11:33.325Z,0.87
2019-02-16T00:14:00.979Z,0.69
2019-02-16T00:16:28.714Z,0.88
2019-02-16T00:18:56.387Z,0.89
2019-02-16T00:21:24.042Z,0.82
2019-02-16T00:23:51.698Z,0.89
2019-02-16T00:26:19.364Z,0.64
2019-02-16T00:28:47.043Z,0.70
2019-02-16T00:31:14.758Z,0.81
2019-02-16T00:33:42.413Z,0.64
2019-02-16T00:36:10.073Z,0.72
2019-02-16T00:38:37.718Z,0.72
2019-02-16T00:41:05.383Z,0.76
2019-02-16T00:43:33.030Z,0.79
2019-02-16T00:46:00.685Z,0.88
2019-02-16T00:48:28.341Z,1.01
2019-02-16T00:50:56.002Z,1.01
2019-02-16T00:53:23.668Z,0.91
2019-02-16T00:55:51.326Z,0.93
2019-02-16T00:58:19.063Z,0.85
2019-02-16T01:00:46.717Z,1.01
2019-02-16T01:03:14.364Z,0.85
2019-02-16T01:05:42.024Z,0.81
2019-02-16T01:08:09.674Z,0.83
2019-02-16T01:10:37.337Z,0.65
2019-02-16T01:13:04.997Z,0.41
2019-02-16T01:15:32.648Z,0.57
2019-02-16T01:18:00.306Z,0.55
2019-02-16T01:20:27.966Z,0.52
2019-02-16T01:22:55.623Z,0.60
2019-02-16T01:25:23.279Z,0.45
2019-02-16T01:27:50.943Z,0.57
2019-02-16T01:30:18.605Z,0.48
2019-02-16T01:32:46.269Z,0.53
2019-02-16T01:35:13.927Z,0.58
2019-02-16T01:37:41.587Z,0.48
2019-02-16T01:40:09.237Z,0.61
2019-02-16T01:42:36.886Z,0.63
2019-02-16T01:45:04.551Z,0.63
2019-02-16T01:47:32.205Z,0.55
2019-02-16T01:49:59.868Z,0.67
2019-02-16T01:52:27.514Z,0.80
2019-02-16T01:54:55.171Z,0.78
2019-02-16T01:57:22.824Z,0.56
2019-02-16T01:59:50.601Z,0.43
2019-02-16T02:02:18.317Z,0.38
2019-02-16T02:04:45.996Z,0.65
2019-02-16T02:07:13.649Z,0.42
2019-02-16T02:09:41.300Z,0.58
2019-02-16T02:12:09.337Z,0.58
2019-02-16T02:14:36.994Z,0.55
2019-02-16T02:17:04.846Z,0.75
2019-02-16T02:19:32.578Z,0.83
2019-02-16T02:22:00.237Z,0.85
2019-02-16T02:24:27.886Z,0.91
2019-02-16T02:26:55.545Z,1.16
2019-02-16T02:29:23.209Z,1.12
2019-02-16T02:31:50.904Z,1.07
2019-02-16T02:34:18.560Z,1.05
2019-02-16T02:36:46.214Z,0.99
2019-02-16T02:39:13.866Z,0.90
2019-02-16T02:41:41.526Z,0.71
2019-02-16T02:44:09.182Z,0.62
2019-02-16T02:46:36.850Z,0.62
2019-02-16T02:49:04.508Z,0.50
2019-02-16T02:51:32.148Z,0.51
2019-02-16T02:53:59.819Z,0.55
2019-02-16T02:56:27.465Z,0.53
2019-02-16T02:58:55.118Z,0.40
2019-02-16T03:01:22.781Z,0.57
2019-02-16T03:03:50.434Z,0.83
2019-02-16T03:06:18.095Z,0.67
2019-02-16T03:08:45.757Z,0.67
2019-02-16T03:11:13.414Z,0.69
2019-02-16T03:13:41.070Z,0.55
2019-02-16T03:16:08.734Z,0.59
2019-02-16T03:18:36.391Z,0.63
2019-02-16T03:21:04.060Z,0.69
2019-02-16T03:23:31.730Z,0.64
2019-02-16T03:25:59.393Z,0.56
2019-02-16T03:28:27.049Z,0.46
2019-02-16T03:30:54.743Z,0.37
2019-02-16T03:33:22.395Z,0.60
2019-02-16T03:35:50.049Z,0.53
2019-02-16T03:38:17.706Z,0.69
2019-02-16T03:40:45.370Z,0.67
2019-02-16T03:43:13.033Z,0.63
2019-02-16T03:45:40.681Z,0.61
2019-02-16T03:48:08.341Z,0.65
2019-02-16T03:50:35.992Z,0.59
2019-02-16T03:53:03.658Z,0.78
2019-02-16T03:55:31.317Z,0.59
2019-02-16T03:57:58.990Z,0.59
2019-02-16T04:00:26.648Z,0.61
2019-02-16T04:02:54.313Z,0.58
2019-02-16T04:05:21.982Z,0.59
2019-02-16T04:07:49.642Z,0.78
2019-02-16T04:10:17.303Z,0.70
2019-02-16T04:12:44.963Z,0.64
2019-02-16T04:15:12.621Z,0.58
2019-02-16T04:17:40.339Z,0.49
2019-02-16T04:20:07.997Z,0.42
2019-02-16T04:22:35.658Z,0.45
2019-02-16T04:25:03.335Z,0.49
2019-02-16T04:27:31.070Z,0.54
2019-02-16T04:29:58.718Z,0.42
2019-02-16T04:32:26.383Z,0.29
2019-02-16T04:34:54.036Z,0.39
2019-02-16T04:37:21.731Z,0.25
2019-02-16T04:39:49.383Z,0.28
2019-02-16T04:42:17.050Z,0.26
2019-02-16T04:44:44.710Z,0.33
2019-02-16T04:47:12.368Z,0.56
2019-02-16T04:49:40.035Z,0.56
2019-02-16T04:52:07.695Z,0.40
2019-02-16T04:54:35.353Z,0.36
2019-02-16T04:57:03.019Z,0.28
2019-02-16T04:59:30.686Z,0.33
2019-02-16T05:01:58.344Z,0.35
2019-02-16T05:04:25.998Z,0.40
2019-02-16T05:06:53.663Z,0.41
2019-02-16T05:09:21.338Z,0.38
2019-02-16T05:11:48.990Z,0.59
2019-02-16T05:14:16.659Z,0.43
2019-02-16T05:16:44.315Z,0.43
2019-02-16T05:19:11.985Z,0.42
2019-02-16T05:21:39.637Z,0.45
2019-02-16T05:24:07.338Z,0.55
2019-02-16T05:26:35.006Z,0.51
2019-02-16T05:29:02.673Z,0.51
2019-02-16T05:31:30.329Z,0.73
2019-02-16T05:33:57.995Z,0.59
2019-02-16T05:36:25.654Z,0.45
2019-02-16T05:38:53.325Z,0.35
2019-02-16T05:41:20.988Z,0.28
2019-02-16T05:43:48.646Z,0.28
2019-02-16T05:46:16.309Z,0.23
2019-02-16T05:48:43.967Z,0.40
2019-02-16T05:51:11.650Z,0.33
2019-02-16T05:53:39.381Z,0.42
2019-02-16T05:56:07.054Z,0.34
2019-02-16T05:58:34.718Z,0.30
2019-02-16T06:01:02.379Z,0.53
2019-02-16T06:03:30.041Z,0.58
2019-02-16T06:05:57.710Z,0.55
2019-02-16T06:08:25.384Z,0.48
2019-02-16T06:10:53.050Z,0.42
2019-02-16T06:13:20.706Z,0.39
2019-02-16T06:15:48.372Z,0.70
2019-02-16T06:18:16.025Z,0.61
2019-02-16T06:20:43.697Z,0.74
2019-02-16T06:23:11.351Z,0.61
2019-02-16T06:25:39.031Z,0.69
2019-02-16T06:28:06.677Z,0.46
2019-02-16T06:30:34.341Z,0.62
2019-02-16T06:33:02.022Z,0.54
2019-02-16T06:35:38.132Z,0.51
2019-02-16T06:38:05.796Z,0.60
2019-02-16T06:40:33.461Z,0.58
2019-02-16T06:43:01.117Z,0.76
2019-02-16T06:45:28.786Z,0.76
2019-02-16T06:47:56.450Z,0.70
2019-02-16T06:50:24.114Z,0.88
2019-02-16T06:52:51.775Z,0.83
2019-02-16T06:55:19.436Z,0.90
2019-02-16T06:57:49.754Z,0.96
2019-02-16T07:00:19.785Z,1.06
2019-02-16T07:02:47.440Z,1.21
2019-02-16T07:05:15.108Z,1.33
2019-02-16T07:07:42.768Z,1.29
2019-02-16T07:10:10.422Z,1.43
2019-02-16T07:12:38.080Z,1.54
2019-02-16T07:15:05.768Z,1.63
2019-02-16T07:17:41.260Z,1.53
2019-02-16T07:20:09.374Z,1.44
2019-02-16T07:22:37.111Z,1.48
2019-02-16T07:25:04.767Z,1.58
2019-02-16T07:27:32.420Z,1.73
2019-02-16T07:30:00.186Z,1.82
2019-02-16T07:32:27.838Z,2.06
2019-02-16T07:34:55.492Z,2.13
2019-02-16T07:37:23.157Z,2.32
2019-02-16T07:39:50.816Z,2.49
2019-02-16T07:42:18.470Z,2.67
2019-02-16T07:44:54.354Z,2.82
2019-02-16T07:47:28.601Z,2.98
2019-02-16T07:50:04.048Z,3.19
2019-02-16T07:52:39.694Z,3.30
2019-02-16T07:55:13.405Z,3.49
2019-02-16T07:57:48.240Z,3.63
2019-02-16T08:00:21.829Z,3.71
2019-02-16T08:02:56.454Z,3.85
2019-02-16T08:05:29.316Z,3.97
2019-02-16T08:08:03.726Z,4.15
2019-02-16T08:10:38.593Z,4.30
2019-02-16T08:13:12.835Z,4.40
2019-02-16T08:15:53.419Z,4.62
2019-02-16T08:18:28.509Z,4.72
2019-02-16T08:21:03.775Z,4.90
2019-02-16T08:23:51.445Z,4.92
2019-02-16T08:26:30.735Z,5.10
2019-02-16T08:29:05.440Z,5.28
2019-02-16T08:31:39.766Z,5.27
2019-02-16T08:34:16.241Z,5.78
2019-02-16T08:36:50.658Z,5.86
2019-02-16T08:39:24.762Z,5.79
2019-02-16T08:42:06.166Z,5.92
2019-02-16T08:44:43.548Z,6.06
2019-02-16T08:47:21.448Z,6.09
2019-02-16T08:49:59.752Z,6.31
2019-02-16T08:52:51.434Z,6.38
2019-02-16T08:55:31.849Z,6.33
2019-02-16T08:58:19.501Z,6.41
2019-02-16T09:00:57.072Z,6.48
2019-02-16T09:03:34.359Z,6.55
2019-02-16T09:06:07.368Z,6.78
2019-02-16T09:08:50.643Z,6.90
2019-02-16T09:11:30.218Z,7.09
2019-02-16T09:14:03.295Z,7.35
2019-02-16T09:16:38.390Z,7.40
2019-02-16T09:19:19.722Z,7.41
2019-02-16T09:21:55.281Z,7.78
2019-02-16T09:24:28.106Z,7.74
2019-02-16T09:27:10.737Z,7.91
2019-02-16T09:29:44.989Z,8.09
2019-02-16T09:32:20.938Z,8.34
2019-02-16T09:35:03.472Z,8.30
2019-02-16T09:37:37.708Z,8.40
2019-02-16T09:40:16.718Z,8.64
2019-02-16T09:42:49.996Z,8.90
2019-02-16T09:45:26.163Z,8.98
2019-02-16T09:48:02.008Z,8.96
2019-02-16T09:50:34.179Z,9.21
2019-02-16T09:53:20.678Z,9.35
2019-02-16T09:55:57.985Z,9.55
2019-02-16T09:58:45.570Z,9.73
2019-02-16T10:01:28.520Z,9.91
2019-02-16T10:04:02.955Z,9.97
2019-02-16T10:06:42.489Z,10.32
2019-02-16T10:09:17.227Z,10.13
2019-02-16T10:11:51.120Z,10.09
2019-02-16T10:14:41.803Z,10.37
2019-02-16T10:17:17.685Z,10.38
2019-02-16T10:20:05.421Z,10.50
2019-02-16T10:22:45.877Z,10.46
2019-02-16T10:25:23.782Z,10.55
2019-02-16T10:28:01.782Z,10.73
2019-02-16T10:30:39.802Z,10.87
2019-02-16T10:33:18.309Z,11.18
2019-02-16T10:35:52.533Z,11.22
2019-02-16T10:38:28.063Z,11.28
2019-02-16T10:41:14.771Z,11.10
2019-02-16T10:43:49.292Z,11.29
2019-02-16T10:46:27.522Z,11.61
2019-02-16T10:49:03.871Z,11.71
2019-02-16T10:51:38.298Z,11.81
2019-02-16T10:54:13.740Z,11.89
2019-02-16T10:56:49.294Z,11.97
2019-02-16T10:59:22.996Z,12.08
2019-02-16T11:02:10.543Z,12.19
2019-02-16T11:04:43.473Z,12.30
2019-02-16T11:07:22.005Z,12.25
2019-02-16T11:09:54.481Z,12.36
2019-02-16T11:12:31.716Z,12.41
2019-02-16T11:15:09.095Z,12.39
2019-02-16T11:17:58.723Z,12.48
2019-02-16T11:20:34.622Z,12.75
2019-02-16T11:23:21.328Z,12.63
2019-02-16T11:26:02.869Z,12.81
2019-02-16T11:28:51.630Z,12.66
2019-02-16T11:31:26.697Z,12.65
2019-02-16T11:34:08.801Z,12.75
2019-02-16T11:36:47.430Z,12.88
2019-02-16T11:39:20.437Z,13.10
2019-02-16T11:41:59.252Z,13.23
2019-02-16T11:44:43.542Z,13.44
2019-02-16T11:47:21.456Z,13.39
2019-02-16T11:49:56.009Z,13.48
2019-02-16T11:52:37.014Z,13.52
2019-02-16T11:55:14.895Z,13.54
2019-02-16T11:58:05.602Z,13.68
2019-02-16T12:00:52.374Z,13.81
2019-02-16T12:03:29.699Z,13.85
2019-02-16T12:06:05.763Z,13.76
2019-02-16T12:08:50.110Z,13.65
2019-02-16T12:11:32.262Z,13.92
2019-02-16T12:14:05.169Z,14.04
2019-02-16T12:16:39.980Z,13.92
2019-02-16T12:19:13.099Z,13.88
2019-02-16T12:21:50.712Z,14.09
2019-02-16T12:24:37.435Z,13.90
2019-02-16T12:27:16.560Z,13.89
2019-02-16T12:30:01.213Z,14.12
2019-02-16T12:32:34.142Z,14.02
2019-02-16T12:35:14.862Z,13.98
2019-02-16T12:38:01.574Z,14.19
2019-02-16T12:40:34.771Z,14.09
2019-02-16T12:43:15.560Z,14.25
2019-02-16T12:45:51.235Z,14.18
2019-02-16T12:48:22.554Z,14.11
2019-02-16T12:50:59.596Z,14.14
2019-02-16T12:53:35.475Z,14.18
2019-02-16T12:56:11.733Z,14.48
2019-02-16T12:58:58.450Z,14.52
2019-02-16T13:01:33.479Z,14.44
2019-02-16T13:04:12.509Z,14.34
2019-02-16T13:06:49.556Z,14.38
2019-02-16T13:09:23.647Z,14.52
2019-02-16T13:12:02.859Z,14.62
2019-02-16T13:14:41.293Z,14.60
2019-02-16T13:17:19.260Z,14.51
2019-02-16T13:19:52.327Z,14.46
2019-02-16T13:22:26.560Z,14.54
2019-02-16T13:25:03.550Z,14.66
2019-02-16T13:27:43.614Z,14.70
2019-02-16T13:30:18.325Z,14.56
2019-02-16T13:33:08.711Z,14.54
2019-02-16T13:35:47.714Z,14.57
2019-02-16T13:38:30.301Z,14.59
2019-02-16T13:41:04.063Z,14.74
2019-02-16T13:43:43.197Z,14.63
2019-02-16T13:46:17.727Z,14.54
2019-02-16T13:48:51.866Z,14.47
2019-02-16T13:51:25.550Z,14.60
2019-02-16T13:54:02.835Z,14.68
2019-02-16T13:56:43.513Z,14.93
2019-02-16T13:59:18.626Z,14.82
2019-02-16T14:01:54.592Z,14.77
2019-02-16T14:04:29.937Z,14.76
2019-02-16T14:07:03.730Z,14.74
2019-02-16T14:09:44.937Z,14.71
2019-02-16T14:12:24.144Z,14.89
2019-02-16T14:14:57.100Z,14.74
2019-02-16T14:17:31.766Z,14.62
2019-02-16T14:19:59.479Z,14.62
2019-02-16T14:22:27.204Z,14.52
2019-02-16T14:24:57.917Z,14.57
2019-02-16T14:27:25.595Z,14.55
2019-02-16T14:29:53.299Z,14.43
2019-02-16T14:32:21.046Z,14.39
2019-02-16T14:34:48.773Z,14.46
2019-02-16T14:37:28.805Z,14.43
2019-02-16T14:39:56.590Z,14.31
2019-02-16T14:42:24.250Z,14.25
2019-02-16T14:44:51.920Z,14.21
2019-02-16T14:47:19.573Z,14.26
2019-02-16T14:49:47.245Z,14.25
2019-02-16T14:52:14.914Z,14.28
2019-02-16T14:54:42.584Z,14.34
2019-02-16T14:57:10.262Z,14.21
2019-02-16T14:59:37.945Z,14.21
2019-02-16T15:02:05.622Z,14.16
2019-02-16T15:04:33.282Z,14.03
2019-02-16T15:07:00.958Z,14.01
2019-02-16T15:09:28.646Z,13.98
2019-02-16T15:11:56.373Z,13.96
2019-02-16T15:14:24.117Z,13.91
2019-02-16T15:16:51.795Z,13.84
2019-02-16T15:19:19.461Z,13.66
2019-02-16T15:21:47.142Z,13.61
2019-02-16T15:24:14.810Z,13.54
2019-02-16T15:26:42.488Z,13.39
2019-02-16T15:29:10.171Z,13.27
2019-02-16T15:31:37.830Z,13.29
2019-02-16T15:34:05.498Z,13.21
2019-02-16T15:36:33.266Z,13.22
2019-02-16T15:39:00.941Z,13.01
2019-02-16T15:41:28.626Z,13.24
2019-02-16T15:43:56.295Z,13.01
2019-02-16T15:46:23.964Z,12.78
2019-02-16T15:48:51.632Z,12.63
2019-02-16T15:51:19.397Z,12.57
2019-02-16T15:53:47.058Z,12.44
2019-02-16T15:56:14.735Z,12.37
2019-02-16T15:58:42.437Z,12.50
2019-02-16T16:01:10.202Z,12.24
2019-02-16T16:03:37.929Z,12.04
2019-02-16T16:06:05.587Z,12.08
2019-02-16T16:08:38.666Z,12.21
2019-02-16T16:11:10.662Z,11.86
2019-02-16T16:13:50.306Z,11.76
2019-02-16T16:16:33.321Z,11.72
2019-02-16T16:19:09.895Z,11.67
2019-02-16T16:21:46.263Z,11.59
2019-02-16T16:24:23.644Z,11.35
2019-02-16T16:27:16.331Z,11.25
2019-02-16T16:29:49.066Z,11.23
2019-02-16T16:32:27.816Z,11.21
2019-02-16T16:35:03.153Z,10.94
2019-02-16T16:37:39.309Z,10.94
2019-02-16T16:40:18.131Z,10.95
2019-02-16T16:42:52.550Z,10.96
2019-02-16T16:45:34.470Z,10.73
2019-02-16T16:48:13.278Z,10.66
2019-02-16T16:50:54.446Z,10.61
2019-02-16T16:53:33.076Z,10.66
2019-02-16T16:56:28.175Z,10.51
2019-02-16T16:58:56.155Z,10.33
2019-02-16T17:01:31.695Z,10.22
2019-02-16T17:04:04.523Z,10.17
2019-02-16T17:06:40.334Z,10.29
2019-02-16T17:09:13.731Z,9.98
2019-02-16T17:11:55.843Z,9.79
2019-02-16T17:14:36.904Z,9.78
2019-02-16T17:17:13.542Z,9.56
2019-02-16T17:19:47.906Z,9.79
2019-02-16T17:22:20.750Z,9.78
2019-02-16T17:24:53.665Z,9.57
2019-02-16T17:27:29.934Z,9.73
2019-02-16T17:30:05.070Z,9.56
2019-02-16T17:32:39.889Z,9.58
2019-02-16T17:35:17.498Z,9.36
2019-02-16T17:37:50.981Z,9.37
2019-02-16T17:40:26.237Z,9.32
2019-02-16T17:42:59.211Z,9.33
2019-02-16T17:45:35.501Z,9.26
2019-02-16T17:48:16.044Z,9.20
2019-02-16T17:50:55.518Z,8.96
2019-02-16T17:53:37.739Z,9.00
2019-02-16T17:56:12.009Z,8.95
2019-02-16T17:58:49.469Z,8.91
2019-02-16T18:01:22.478Z,8.82
2019-02-16T18:03:55.448Z,8.77
2019-02-16T18:06:33.069Z,8.61
2019-02-16T18:09:12.224Z,8.61
2019-02-16T18:11:59.921Z,8.64
2019-02-16T18:14:36.614Z,8.68
2019-02-16T18:17:13.997Z,8.57
2019-02-16T18:19:48.000Z,8.57
2019-02-16T18:22:37.594Z,8.42
2019-02-16T18:25:28.141Z,8.36
2019-02-16T18:28:01.003Z,8.30
2019-02-16T18:30:38.273Z,8.25
2019-02-16T18:33:20.944Z,8.28
2019-02-16T18:36:02.376Z,8.38
2019-02-16T18:38:43.762Z,8.28
2019-02-16T18:41:25.916Z,8.13
2019-02-16T18:44:07.741Z,7.81
2019-02-16T18:46:54.443Z,7.76
2019-02-16T18:49:27.469Z,7.72
2019-02-16T18:52:03.201Z,7.80
2019-02-16T18:54:36.306Z,7.70
2019-02-16T18:57:09.291Z,7.69
2019-02-16T18:59:44.229Z,7.69
2019-02-16T19:02:25.488Z,7.61
2019-02-16T19:04:58.586Z,7.51
2019-02-16T19:07:36.679Z,7.38
2019-02-16T19:10:10.690Z,7.34
2019-02-16T19:12:43.620Z,7.30
2019-02-16T19:15:18.329Z,7.18
2019-02-16T19:17:53.103Z,7.00
2019-02-16T19:20:40.004Z,7.12
2019-02-16T19:23:17.324Z,7.01
2019-02-16T19:26:06.956Z,7.08
2019-02-16T19:28:47.377Z,6.76
2019-02-16T19:31:34.077Z,6.76
2019-02-16T19:34:10.559Z,6.57
2019-02-16T19:36:59.262Z,6.65
2019-02-16T19:39:34.048Z,6.65
2019-02-16T19:42:09.591Z,6.68
2019-02-16T19:44:51.294Z,6.81
2019-02-16T19:47:24.050Z,6.74
2019-02-16T19:49:59.201Z,6.60
2019-02-16T19:52:34.550Z,6.75
2019-02-16T19:55:12.346Z,6.71
2019-02-16T19:57:53.518Z,6.70
2019-02-16T20:00:41.116Z,6.62
2019-02-16T20:03:14.126Z,6.75
2019-02-16T20:05:57.781Z,6.55
2019-02-16T20:08:33.629Z,6.48
2019-02-16T20:11:06.684Z,6.17
2019-02-16T20:13:43.802Z,6.04
2019-02-16T20:16:20.587Z,6.20
2019-02-16T20:19:00.118Z,6.24
2019-02-16T20:21:37.413Z,6.17
2019-02-16T20:24:14.391Z,6.01
2019-02-16T20:26:54.648Z,5.79
2019-02-16T20:29:27.948Z,5.67
2019-02-16T20:32:05.541Z,5.65
2019-02-16T20:34:40.983Z,5.58
2019-02-16T20:37:16.018Z,5.63
2019-02-16T20:39:50.847Z,5.62
2019-02-16T20:42:24.865Z,5.57
2019-02-16T20:45:04.114Z,5.41
2019-02-16T20:47:39.954Z,5.37
2019-02-16T20:50:16.626Z,5.54
2019-02-16T20:53:05.266Z,5.42
2019-02-16T20:55:46.978Z,5.27
2019-02-16T20:58:23.333Z,5.13
2019-02-16T21:00:56.797Z,5.15
2019-02-16T21:03:29.600Z,5.02
2019-02-16T21:06:04.755Z,5.13
2019-02-16T21:08:43.169Z,5.22
2019-02-16T21:11:18.815Z,5.06
2019-02-16T21:13:51.799Z,4.83
2019-02-16T21:16:30.117Z,4.87
2019-02-16T21:19:07.207Z,4.79
2019-02-16T21:21:48.885Z,4.90
2019-02-16T21:24:31.920Z,4.80
2019-02-16T21:27:06.435Z,4.75
2019-02-16T21:29:53.149Z,4.75
2019-02-16T21:32:39.181Z,4.70
2019-02-16T21:35:14.998Z,4.73
2019-02-16T21:37:54.029Z,4.88
2019-02-16T21:40:43.702Z,4.81
2019-02-16T21:43:24.387Z,4.71
2019-02-16T21:46:02.692Z,4.60
2019-02-16T21:48:39.055Z,4.56
2019-02-16T21:51:17.360Z,4.58
2019-02-16T21:53:55.265Z,4.52
2019-02-16T21:56:29.784Z,4.58
2019-02-16T21:59:02.656Z,4.37
2019-02-16T22:01:35.965Z,4.47
2019-02-16T22:04:23.767Z,4.42
2019-02-16T22:07:02.222Z,4.35
2019-02-16T22:09:35.291Z,4.27
2019-02-16T22:12:13.621Z,4.31
2019-02-16T22:14:41.279Z,4.43
2019-02-16T22:17:08.943Z,4.32
2019-02-16T22:19:36.602Z,4.31
2019-02-16T22:22:04.288Z,4.40
2019-02-16T22:24:31.936Z,4.42
2019-02-16T22:26:59.591Z,4.26
2019-02-16T22:29:27.430Z,4.07
2019-02-16T22:31:55.090Z,3.94
2019-02-16T22:34:22.749Z,3.96
2019-02-16T22:36:50.410Z,3.76
2019-02-16T22:39:18.075Z,3.76
2019-02-16T22:41:45.731Z,3.58
2019-02-16T22:44:13.393Z,3.60
2019-02-16T22:46:41.134Z,3.51
2019-02-16T22:49:08.895Z,3.55
2019-02-16T22:51:36.570Z,3.44
2019-02-16T22:54:04.245Z,3.38
2019-02-16T22:56:31.898Z,3.32
2019-02-16T22:58:59.558Z,3.35
2019-02-16T23:01:27.504Z,3.40
2019-02-16T23:03:55.176Z,3.34
2019-02-16T23:06:22.846Z,3.23
2019-02-16T23:08:50.505Z,3.15
2019-02-16T23:11:18.169Z,3.03
2019-02-16T23:13:45.833Z,3.10
2019-02-16T23:16:13.494Z,3.12
2019-02-16T23:18:41.156Z,3.05
2019-02-16T23:21:08.823Z,3.09
2019-02-16T23:23:36.494Z,3.09
2019-02-16T23:26:04.170Z,3.21
2019-02-16T23:28:38.650Z,3.26
2019-02-16T23:31:01.245Z,3.27
2019-02-16T23:33:28.906Z,3.26
2019-02-16T23:35:56.564Z,3.40
2019-02-16T23:38:24.236Z,3.36
2019-02-16T23:40:51.897Z,3.33
2019-02-16T23:43:19.554Z,3.27
2019-02-16T23:45:47.226Z,3.19
2019-02-16T23:48:14.877Z,3.46
2019-02-16T23:50:42.533Z,3.21
2019-02-16T23:53:10.195Z,3.12
2019-02-16T23:55:37.859Z,3.08
2019-02-16T23:58:05.531Z,3.24
